Time;durP1;ratioP1;P1;durP2;ratioP2;P2;SDS_P1;SDS_P2;PMS_P1;PMS_P2;Temp;Humidity;BMP_temperature;BMP_pressure;BME280_temperature;BME280_humidity;BME280_pressure;Samples;Min_cycle;Max_cycle;Signal;HPM_P1;HPM_P2
2022/07/12 00:01:20;;;;;;;;;2.67;2.67;;;;;-146.67;30.80;74040.75;5044336;28;61740;-76
2022/07/12 00:03:45;;;;;;;;;3.00;2.00;;;;;-146.67;30.76;74042.75;5043445;28;62963;-75
2022/07/12 00:06:11;;;;;;;;;1.00;1.00;;;;;-146.67;30.80;74042.75;5059672;28;61847;-76
2022/07/12 00:08:37;;;;;;;;;2.00;2.00;;;;;-146.67;31.11;74046.75;5042653;28;62034;-76
2022/07/12 00:11:03;;;;;;;;;1.67;1.67;;;;;-146.67;30.92;74058.72;5042960;28;61836;-75
2022/07/12 00:13:29;;;;;;;;;1.00;1.00;;;;;-146.67;31.28;74058.72;5041809;28;63785;-76
2022/07/12 00:15:56;;;;;;;;;4.00;2.33;;;;;-146.67;31.20;74066.69;5043720;28;61769;-75
2022/07/12 00:18:22;;;;;;;;;1.00;1.00;;;;;-146.67;31.39;74072.69;5042213;28;61767;-76
2022/07/12 00:20:47;;;;;;;;;2.00;2.00;;;;;-146.67;31.17;74082.69;5042656;28;61864;-76
2022/07/12 00:23:12;;;;;;;;;2.33;2.00;;;;;-146.67;31.50;74090.66;5041699;28;64731;-77
2022/07/12 00:25:38;;;;;;;;;1.67;1.67;;;;;-146.67;31.35;74092.66;5043736;28;61938;-76
2022/07/12 00:28:03;;;;;;;;;2.33;1.00;;;;;-146.67;31.37;74088.66;5044130;28;61728;-76
2022/07/12 00:30:29;;;;;;;;;1.33;0.33;;;;;-146.67;31.38;74090.66;5043770;28;62172;-77
2022/07/12 00:32:54;;;;;;;;;1.00;1.00;;;;;-146.67;31.34;74096.66;5042796;28;61855;-76
2022/07/12 00:35:20;;;;;;;;;1.00;1.00;;;;;-146.67;31.73;74096.66;5043883;28;61751;-76
2022/07/12 00:37:45;;;;;;;;;4.00;1.00;;;;;-146.67;31.54;74096.66;5042316;28;61964;-76
2022/07/12 00:40:11;;;;;;;;;1.00;1.00;;;;;-146.67;31.47;74092.66;5059521;28;61851;-76
2022/07/12 00:42:38;;;;;;;;;1.00;1.00;;;;;-146.67;31.63;74104.63;5042797;28;61859;-77
2022/07/12 00:45:05;;;;;;;;;1.67;1.00;;;;;-146.67;31.62;74108.63;5041968;28;61882;-76
2022/07/12 00:47:40;;;;;;;;;1.00;1.00;;;;;-146.67;31.59;74122.59;5043598;28;61910;-76
2022/07/12 00:50:12;;;;;;;;;2.00;1.00;;;;;-146.67;31.60;74110.63;5042469;28;61768;-76
2022/07/12 00:52:38;;;;;;;;;1.00;1.00;;;;;-146.67;31.96;74110.63;5041092;28;64015;-76
2022/07/12 00:55:05;;;;;;;;;2.00;2.00;;;;;-146.67;31.38;74116.59;5057918;28;61818;-76
2022/07/12 00:57:32;;;;;;;;;4.33;2.00;;;;;-146.67;31.71;74114.63;5041188;28;61895;-77
2022/07/12 00:59:58;;;;;;;;;1.00;1.00;;;;;-146.67;32.00;74118.59;5057979;28;61894;-76
2022/07/12 01:02:24;;;;;;;;;3.00;1.67;;;;;-146.67;31.45;74126.59;5041825;28;61717;-76
2022/07/12 01:04:50;;;;;;;;;2.00;2.00;;;;;-146.67;31.99;74132.56;5041977;28;61693;-76
2022/07/12 01:07:16;;;;;;;;;2.67;1.67;;;;;-146.67;31.93;74120.59;5043473;28;61940;-76
2022/07/12 01:09:42;;;;;;;;;2.00;2.00;;;;;-146.67;32.13;74136.56;5043242;28;62115;-76
2022/07/12 01:12:09;;;;;;;;;2.33;1.67;;;;;-146.67;32.05;74150.53;5042233;28;62124;-76
2022/07/12 01:14:35;;;;;;;;;3.00;1.67;;;;;-146.67;31.98;74148.56;5041443;28;61897;-77
2022/07/12 01:17:01;;;;;;;;;1.33;1.33;;;;;-146.67;31.93;74152.53;5041272;28;61907;-76
2022/07/12 01:19:28;;;;;;;;;2.00;2.00;;;;;-146.67;32.03;74146.56;5042133;28;62199;-76
2022/07/12 01:22:02;;;;;;;;;1.00;1.00;;;;;-146.67;31.96;74144.56;5041534;28;62870;-76
2022/07/12 01:24:27;;;;;;;;;2.00;2.00;;;;;-146.67;32.24;74148.56;5041329;28;61836;-76
2022/07/12 01:26:53;;;;;;;;;2.00;2.00;;;;;-146.67;32.55;74154.53;5042911;28;61736;-76
2022/07/12 01:29:19;;;;;;;;;1.00;1.00;;;;;-146.67;32.27;74154.53;5043139;28;61937;-77
2022/07/12 01:31:45;;;;;;;;;0.67;0.67;;;;;-146.67;32.25;74140.56;5040752;28;63689;-76
2022/07/12 01:34:11;;;;;;;;;1.00;0.33;;;;;-146.67;32.33;74144.56;5041467;28;61844;-76
2022/07/12 01:36:37;;;;;;;;;2.00;2.00;;;;;-146.67;32.19;74150.53;5058257;28;61980;-76
2022/07/12 01:39:04;;;;;;;;;1.00;1.00;;;;;-146.67;32.47;74154.53;5041475;28;61888;-76
2022/07/12 01:41:31;;;;;;;;;2.00;2.00;;;;;-146.67;32.58;74150.53;5042154;28;62002;-76
2022/07/12 01:43:57;;;;;;;;;2.00;2.00;;;;;-146.67;32.60;74152.53;5040762;28;61778;-76
2022/07/12 01:46:23;;;;;;;;;1.00;1.00;;;;;-146.67;32.47;74150.53;5042539;28;61767;-76
2022/07/12 01:48:48;;;;;;;;;1.33;1.33;;;;;-146.67;32.41;74162.53;5042993;28;62137;-76
2022/07/12 01:51:14;;;;;;;;;1.67;1.67;;;;;-146.67;32.55;74164.53;5041949;28;61700;-76
2022/07/12 01:53:39;;;;;;;;;4.00;1.67;;;;;-146.67;32.38;74160.53;5042532;28;61877;-76
2022/07/12 01:56:05;;;;;;;;;3.00;3.00;;;;;-146.67;32.55;74166.50;5041284;28;61861;-76
2022/07/12 01:58:30;;;;;;;;;0.67;0.67;;;;;-146.67;32.49;74172.50;5042450;28;61905;-76
2022/07/12 02:00:57;;;;;;;;;1.00;1.00;;;;;-146.67;32.36;74180.50;5040232;28;65225;-76
2022/07/12 02:03:22;;;;;;;;;2.00;2.00;;;;;-146.67;32.79;74182.50;5042638;28;62062;-76
2022/07/12 02:05:48;;;;;;;;;3.00;3.00;;;;;-146.67;32.81;74186.47;5041012;28;62540;-77
2022/07/12 02:08:14;;;;;;;;;1.33;1.00;;;;;-146.67;32.57;74188.47;5041361;28;62296;-76
2022/07/12 02:10:40;;;;;;;;;2.00;2.00;;;;;-146.67;32.60;74194.47;5041965;28;62811;-76
2022/07/12 02:13:06;;;;;;;;;2.00;2.00;;;;;-146.67;32.65;74196.47;5040252;28;61794;-76
2022/07/12 02:15:31;;;;;;;;;2.00;2.00;;;;;-146.67;32.94;74190.47;5042309;28;61968;-76
2022/07/12 02:17:57;;;;;;;;;1.00;1.00;;;;;-146.67;32.72;74200.44;5042136;28;62195;-76
2022/07/12 02:20:23;;;;;;;;;3.00;2.00;;;;;-146.67;32.87;74188.47;5040254;28;63525;-76
2022/07/12 02:22:49;;;;;;;;;2.00;2.00;;;;;-146.67;32.93;74198.47;5042626;28;61786;-76
2022/07/12 02:25:14;;;;;;;;;2.00;2.00;;;;;-146.67;33.13;74200.44;5062602;28;61728;-76
2022/07/12 02:27:40;;;;;;;;;2.00;2.00;;;;;-146.67;32.68;74194.47;5062171;28;62045;-76
2022/07/12 02:30:07;;;;;;;;;3.00;3.00;;;;;-146.67;32.64;74200.44;5061410;28;62898;-76
2022/07/12 02:32:32;;;;;;;;;1.67;1.67;;;;;-146.67;32.98;74196.47;5062156;28;61892;-76
2022/07/12 02:34:58;;;;;;;;;2.00;2.00;;;;;-146.67;33.07;74202.44;5064664;28;61776;-76
2022/07/12 02:37:24;;;;;;;;;2.00;2.00;;;;;-146.67;32.99;74202.44;5047907;28;61909;-76
2022/07/12 02:39:49;;;;;;;;;2.00;2.00;;;;;-146.67;32.73;74204.44;5065100;28;61689;-76
2022/07/12 02:42:14;;;;;;;;;1.33;1.33;;;;;-146.67;32.98;74204.44;5065254;28;61726;-76
2022/07/12 02:44:40;;;;;;;;;3.00;3.00;;;;;-146.67;33.02;74216.44;5065810;28;61772;-76
2022/07/12 02:47:05;;;;;;;;;2.00;2.00;;;;;-146.67;33.06;74232.41;5065616;28;62193;-76
2022/07/12 02:49:31;;;;;;;;;1.67;1.67;;;;;-146.67;33.24;74230.41;5065107;28;62922;-76
2022/07/12 02:51:56;;;;;;;;;1.67;1.67;;;;;-146.67;33.23;74232.41;5063975;28;61868;-76
2022/07/12 02:54:22;;;;;;;;;2.33;2.33;;;;;-146.67;33.57;74230.41;5064977;28;62454;-76
2022/07/12 02:56:47;;;;;;;;;1.33;1.00;;;;;-146.67;33.38;74236.38;5063332;28;61716;-76
2022/07/12 02:59:12;;;;;;;;;3.33;2.33;;;;;-146.67;33.51;74240.38;5062463;28;64665;-76
2022/07/12 03:01:38;;;;;;;;;3.00;3.00;;;;;-146.67;33.34;74246.38;5062894;28;61756;-76
2022/07/12 03:04:03;;;;;;;;;2.33;2.00;;;;;-146.67;33.16;74252.34;5065001;28;61708;-76
2022/07/12 03:06:29;;;;;;;;;3.00;3.00;;;;;-146.67;33.55;74256.34;5047355;28;62178;-76
2022/07/12 03:08:54;;;;;;;;;2.33;2.00;;;;;-146.67;33.29;74244.38;5064715;28;61793;-76
2022/07/12 03:11:19;;;;;;;;;2.00;2.00;;;;;-146.67;33.17;74242.38;5065222;28;61700;-76
2022/07/12 03:13:45;;;;;;;;;4.33;3.33;;;;;-146.67;33.25;74242.38;5046766;28;62399;-76
2022/07/12 03:16:10;;;;;;;;;2.67;2.67;;;;;-146.67;33.26;74244.38;5065221;28;61756;-76
2022/07/12 03:18:36;;;;;;;;;3.00;3.00;;;;;-146.67;33.07;74238.38;5064435;28;61863;-76
2022/07/12 03:21:01;;;;;;;;;2.00;2.00;;;;;-146.67;33.25;74244.38;5065025;28;61787;-76
2022/07/12 03:23:27;;;;;;;;;3.50;3.00;;;;;-146.67;33.55;74246.38;5064941;28;61868;-76
2022/07/12 03:25:52;;;;;;;;;3.33;3.33;;;;;-146.67;33.60;74250.38;5047012;28;61800;-76
2022/07/12 03:28:18;;;;;;;;;3.33;3.33;;;;;-146.67;33.46;74252.34;5064224;28;61924;-76
2022/07/12 03:30:44;;;;;;;;;3.33;3.33;;;;;-146.67;33.42;74256.34;5046881;28;61929;-76
2022/07/12 03:33:10;;;;;;;;;4.50;4.00;;;;;-146.67;33.60;74266.34;5046817;28;61863;-76
2022/07/12 03:35:35;;;;;;;;;5.00;5.00;;;;;-146.67;33.80;74268.31;5065226;28;61859;-76
2022/07/12 03:38:02;;;;;;;;;8.50;5.25;;;;;-146.67;33.54;74270.31;5045874;28;64840;-76
2022/07/12 03:40:31;;;;;;;;;7.50;6.00;;;;;-146.67;33.54;74280.31;5046584;28;62035;-76
2022/07/12 03:42:58;;;;;;;;;6.75;5.50;;;;;-146.67;33.88;74286.28;5064523;28;61744;-76
2022/07/12 03:45:23;;;;;;;;;4.25;4.25;;;;;-146.67;33.90;74298.28;5064299;28;62089;-76
2022/07/12 03:47:49;;;;;;;;;4.00;4.00;;;;;-146.67;33.64;74308.25;5045801;28;65057;-76
2022/07/12 03:50:15;;;;;;;;;5.00;5.00;;;;;-146.67;33.94;74310.25;5046302;28;61995;-76
2022/07/12 03:52:42;;;;;;;;;7.50;5.75;;;;;-146.67;33.88;74316.25;5046349;28;61843;-76
2022/07/12 03:55:10;;;;;;;;;5.50;4.00;;;;;-146.67;34.14;74320.22;5064495;28;61721;-76
2022/07/12 03:57:35;;;;;;;;;6.00;6.00;;;;;-146.67;33.94;74334.22;5063571;28;62141;-76
2022/07/12 04:00:00;;;;;;;;;8.75;5.00;;;;;-146.67;34.11;74334.22;5063277;28;62348;-76
2022/07/12 04:02:26;;;;;;;;;5.25;3.50;;;;;-146.67;33.91;74334.22;5062169;28;61920;-76
2022/07/12 04:04:52;;;;;;;;;6.25;6.25;;;;;-146.67;33.68;74336.19;5063682;28;61831;-76
2022/07/12 04:07:18;;;;;;;;;5.25;5.25;;;;;-146.67;34.21;74336.19;5044734;28;64937;-76
2022/07/12 04:09:43;;;;;;;;;5.50;5.50;;;;;-146.67;34.00;74336.19;5044896;28;61874;-76
2022/07/12 04:12:09;;;;;;;;;5.25;5.25;;;;;-146.67;34.02;74340.19;5044949;28;61840;-76
2022/07/12 04:14:35;;;;;;;;;8.00;6.75;;;;;-146.67;34.08;74340.19;5045370;28;62085;-76
2022/07/12 04:17:01;;;;;;;;;6.00;5.00;;;;;-146.67;33.89;74340.19;5062122;28;62007;-76
2022/07/12 04:19:31;;;;;;;;;5.00;5.00;;;;;-146.67;34.28;74344.19;5063316;28;61748;-76
2022/07/12 04:21:57;;;;;;;;;6.00;6.00;;;;;-146.67;33.99;74350.19;5063274;28;62300;-76
2022/07/12 04:24:23;;;;;;;;;6.75;5.25;;;;;-146.67;34.08;74360.16;5044439;28;61880;-76
2022/07/12 04:26:49;;;;;;;;;8.75;6.00;;;;;-146.67;34.27;74362.16;5062517;28;61960;-76
2022/07/12 04:29:20;;;;;;;;;10.75;5.00;;;;;-146.67;34.02;74358.16;5062950;28;62122;-76
2022/07/12 04:31:46;;;;;;;;;4.25;4.25;;;;;-146.67;34.00;74358.16;5062907;28;61989;-76
2022/07/12 04:34:16;;;;;;;;;7.00;4.00;;;;;-146.67;34.33;74362.16;5062876;28;62129;-76
2022/07/12 04:36:42;;;;;;;;;5.75;4.75;;;;;-146.67;34.27;74364.16;5062582;28;63105;-76
2022/07/12 04:39:07;;;;;;;;;10.25;6.25;;;;;-146.67;34.18;74366.16;5044251;28;61983;-76
2022/07/12 04:41:33;;;;;;;;;5.00;4.75;;;;;-146.67;34.49;74376.13;5044545;28;61809;-76
2022/07/12 04:43:59;;;;;;;;;6.00;4.25;;;;;-146.67;34.37;74378.13;5044841;28;61804;-76
2022/07/12 04:46:24;;;;;;;;;4.67;4.67;;;;;-146.67;34.33;74382.13;5060512;28;63911;-76
2022/07/12 04:48:49;;;;;;;;;5.50;4.25;;;;;-146.67;34.66;74390.09;5044836;28;61785;-76
2022/07/12 04:51:16;;;;;;;;;4.00;4.00;;;;;-146.67;34.37;74386.13;5061240;28;61820;-76
2022/07/12 04:53:42;;;;;;;;;4.00;4.00;;;;;-146.67;34.39;74388.09;5044567;28;62119;-76
2022/07/12 04:56:07;;;;;;;;;4.00;4.00;;;;;-146.67;34.41;74392.09;5043207;28;65289;-76
2022/07/12 04:58:32;;;;;;;;;6.33;4.00;;;;;-146.67;34.67;74384.13;5060931;28;62099;-76
2022/07/12 05:00:58;;;;;;;;;4.67;4.67;;;;;-146.67;34.73;74378.13;5062469;28;61849;-76
2022/07/12 05:03:26;;;;;;;;;4.67;4.00;;;;;-146.67;34.45;74372.13;5062575;28;62105;-76
2022/07/12 05:05:53;;;;;;;;;5.00;3.67;;;;;-146.67;34.55;74370.16;5043787;28;63750;-76
2022/07/12 05:08:18;;;;;;;;;4.67;4.67;;;;;-146.67;34.51;74366.16;5061836;28;61784;-76
2022/07/12 05:10:44;;;;;;;;;4.67;3.67;;;;;-146.67;34.39;74352.19;5060965;28;62165;-77
2022/07/12 05:13:09;;;;;;;;;3.00;3.00;;;;;-146.67;34.26;74338.19;5060894;28;61717;-76
2022/07/12 05:15:35;;;;;;;;;3.33;3.33;;;;;-146.67;34.16;74334.22;5043361;28;63870;-77
2022/07/12 05:18:00;;;;;;;;;5.00;3.50;;;;;-146.67;34.00;74332.22;5044082;28;62102;-77
2022/07/12 05:20:27;;;;;;;;;4.33;4.00;;;;;-146.67;33.92;74318.25;5043879;28;61850;-75
2022/07/12 05:22:55;;;;;;;;;3.33;2.67;;;;;-146.67;33.97;74314.25;5062100;28;61971;-77
2022/07/12 05:25:20;;;;;;;;;3.00;3.00;;;;;-146.67;33.98;74314.25;5061440;28;61970;-77
2022/07/12 05:27:46;;;;;;;;;13.50;9.50;;;;;-146.67;33.70;74300.28;5061955;28;61981;-76
2022/07/12 05:30:11;;;;;;;;;12.00;6.50;;;;;-146.67;33.56;74300.28;5043783;28;61895;-76
2022/07/12 05:32:37;;;;;;;;;5.00;4.67;;;;;-146.67;33.88;74290.28;5060524;28;62119;-76
2022/07/12 05:35:02;;;;;;;;;3.00;3.00;;;;;-146.67;33.49;74296.28;5061366;28;61936;-77
2022/07/12 05:37:28;;;;;;;;;4.67;4.67;;;;;-146.67;33.41;74282.31;5043524;28;61929;-76
2022/07/12 05:39:53;;;;;;;;;4.00;2.00;;;;;-146.67;33.39;74276.31;5043937;28;62075;-76
2022/07/12 05:42:19;;;;;;;;;4.67;3.67;;;;;-146.67;33.33;74244.38;5043121;28;62254;-77
2022/07/12 05:44:44;;;;;;;;;5.67;5.00;;;;;-146.67;33.00;74204.44;5042761;28;63823;-76
2022/07/12 05:47:10;;;;;;;;;6.67;5.67;;;;;-146.67;32.50;74162.53;5043452;28;61853;-78
2022/07/12 05:49:35;;;;;;;;;5.33;2.67;;;;;-146.67;32.35;74130.59;5061117;28;61759;-79
2022/07/12 05:54:45;;;;;;;;;2.33;2.33;;;;;-146.67;31.03;73988.84;5060330;28;61827;-79
2022/07/12 05:57:11;;;;;;;;;2.00;2.00;;;;;-146.67;30.76;73984.84;5051219;28;61709;-79
2022/07/12 05:59:36;;;;;;;;;5.67;3.33;;;;;-146.67;31.06;73956.91;5042886;28;61804;-79
2022/07/12 06:02:02;;;;;;;;;2.00;2.00;;;;;-146.67;30.35;73911.00;5051510;28;62004;-79
2022/07/12 06:04:28;;;;;;;;;4.33;4.33;;;;;-146.67;30.20;73917.00;5050222;28;63991;-80
2022/07/12 06:06:53;;;;;;;;;3.33;3.33;;;;;-146.67;30.32;73928.97;5042912;28;62129;-79
2022/07/12 06:09:18;;;;;;;;;3.33;3.00;;;;;-146.67;30.32;73940.94;5060629;28;61926;-81
2022/07/12 06:11:44;;;;;;;;;3.00;3.00;;;;;-146.67;30.88;73946.94;5060774;28;62191;-79
2022/07/12 06:14:09;;;;;;;;;4.00;4.00;;;;;-146.67;30.54;73948.94;5043162;28;63984;-79
2022/07/12 06:16:35;;;;;;;;;3.33;2.33;;;;;-146.67;30.49;73936.94;5054160;28;61843;-79
2022/07/12 06:19:00;;;;;;;;;2.67;2.67;;;;;-146.67;30.41;73911.00;5061830;28;62400;-79
2022/07/12 06:21:25;;;;;;;;;3.33;2.33;;;;;-146.67;30.23;73889.03;5060117;28;61854;-79
2022/07/12 06:23:52;;;;;;;;;3.00;3.00;;;;;-146.67;30.26;73883.06;5031559;28;63634;-76
2022/07/12 06:26:18;;;;;;;;;3.00;3.00;;;;;-146.67;30.14;73867.09;5058370;28;61855;-77
2022/07/12 06:28:44;;;;;;;;;5.00;5.00;;;;;-146.67;29.59;73853.13;5050279;28;62115;-77
2022/07/12 06:31:09;;;;;;;;;4.00;4.00;;;;;-146.67;29.66;73815.19;5041288;28;61981;-77
2022/07/12 06:33:35;;;;;;;;;4.00;4.00;;;;;-146.67;29.63;73819.19;5042069;28;64324;-77
2022/07/12 06:36:00;;;;;;;;;4.67;3.00;;;;;-146.67;29.60;73835.16;5043450;28;61865;-78
2022/07/12 06:38:26;;;;;;;;;5.00;4.00;;;;;-146.67;29.49;73823.16;5043411;28;62424;-78
2022/07/12 06:40:51;;;;;;;;;3.00;3.00;;;;;-146.67;29.36;73793.22;5043124;28;61883;-77
2022/07/12 06:43:16;;;;;;;;;4.00;3.33;;;;;-146.67;29.56;73815.19;5058072;28;64014;-78
2022/07/12 06:45:42;;;;;;;;;3.33;3.33;;;;;-146.67;29.91;73867.09;5060529;28;62021;-81
2022/07/12 06:48:08;;;;;;;;;3.67;3.67;;;;;-146.67;30.14;73881.06;5061414;28;61972;-81
2022/07/12 06:50:33;;;;;;;;;4.33;4.00;;;;;-146.67;30.07;73895.03;5043621;28;62241;-81
2022/07/12 06:52:59;;;;;;;;;4.33;4.33;;;;;-146.67;30.26;73928.97;5042721;28;63692;-81
2022/07/12 06:55:25;;;;;;;;;6.00;4.00;;;;;-146.67;30.18;73926.97;5043054;28;62159;-81
2022/07/12 06:57:50;;;;;;;;;3.33;3.33;;;;;-146.67;30.29;73940.94;5056499;28;61837;-81
2022/07/12 07:00:15;;;;;;;;;7.33;4.67;;;;;-146.67;30.24;73952.91;5060315;28;61845;-80
2022/07/12 07:02:41;;;;;;;;;3.67;3.67;;;;;-146.67;30.61;73956.91;5044822;28;63495;-81
2022/07/12 07:05:08;;;;;;;;;5.00;3.00;;;;;-146.67;30.60;73962.91;5041246;28;62098;-81
2022/07/12 07:07:33;;;;;;;;;4.67;3.00;;;;;-146.67;30.78;73950.94;5023474;28;61818;-81
2022/07/12 07:09:59;;;;;;;;;5.00;4.33;;;;;-146.67;30.56;73946.94;5027622;28;61792;-81
2022/07/12 07:12:24;;;;;;;;;5.00;3.67;;;;;-146.67;30.46;73950.94;5059172;28;61735;-81
2022/07/12 07:14:50;;;;;;;;;5.67;5.67;;;;;-146.67;30.49;73942.94;5041147;28;61896;-80
2022/07/12 07:17:17;;;;;;;;;5.00;4.00;;;;;-146.67;30.34;73952.91;5041316;28;61919;-80
2022/07/12 07:19:44;;;;;;;;;5.00;4.00;;;;;-146.67;30.32;73950.94;5060515;28;61891;-81
2022/07/12 07:22:10;;;;;;;;;8.33;4.00;;;;;-146.67;30.46;73946.94;5045728;28;63520;-80
2022/07/12 07:24:36;;;;;;;;;3.00;3.00;;;;;-146.67;30.55;73952.91;5062734;28;61990;-81
2022/07/12 07:27:01;;;;;;;;;6.33;4.33;;;;;-146.67;30.24;73944.94;5052730;28;61733;-81
2022/07/12 07:32:11;;;;;;;;;5.00;4.00;;;;;-146.67;30.51;73946.94;5043620;28;61819;-80
2022/07/12 07:34:37;;;;;;;;;3.00;3.00;;;;;-146.67;30.15;73934.94;5026148;28;61787;-81
2022/07/12 07:37:03;;;;;;;;;5.00;5.00;;;;;-146.67;30.23;73922.97;5044275;28;61764;-81
2022/07/12 07:39:28;;;;;;;;;6.00;4.00;;;;;-146.67;30.00;73917.00;5060902;28;61735;-80
2022/07/12 07:41:53;;;;;;;;;6.67;6.33;;;;;-146.67;30.32;73917.00;5063904;28;62021;-80
2022/07/12 07:44:19;;;;;;;;;4.67;3.67;;;;;-146.67;30.35;73918.97;5062920;28;61794;-80
2022/07/12 07:46:45;;;;;;;;;10.33;5.67;;;;;-146.67;30.20;73917.00;5063705;28;62463;-82
2022/07/12 07:49:10;;;;;;;;;5.33;4.33;;;;;-146.67;30.49;73926.97;5046558;28;61750;-82
2022/07/12 07:51:35;;;;;;;;;4.00;4.00;;;;;-146.67;30.20;73920.97;5045478;28;63697;-83
2022/07/12 07:54:02;;;;;;;;;4.67;4.67;;;;;-146.67;30.06;73924.97;5063647;28;61873;-82
2022/07/12 07:56:28;;;;;;;;;4.33;4.33;;;;;-146.67;30.05;73905.00;5061996;28;61795;-83
2022/07/12 07:58:54;;;;;;;;;4.67;4.67;;;;;-146.67;30.29;73932.97;5062208;28;61992;-83
2022/07/12 08:01:42;;;;;;;;;4.67;4.67;;;;;-146.67;30.20;73928.97;5043535;28;64062;-77
2022/07/12 08:04:15;;;;;;;;;3.00;3.00;;;;;-146.67;30.15;73920.97;5062208;28;61987;-75
2022/07/12 08:06:41;;;;;;;;;7.67;7.67;;;;;-146.67;30.51;73930.97;5063835;28;61776;-75
2022/07/12 08:09:07;;;;;;;;;3.33;3.33;;;;;-146.67;30.19;73940.94;5064066;28;61800;-75
2022/07/12 08:11:35;;;;;;;;;4.00;4.00;;;;;-146.67;29.99;73926.97;5061962;28;63776;-75
2022/07/12 08:14:02;;;;;;;;;4.33;3.67;;;;;-146.67;30.08;73928.97;5062105;28;61722;-75
2022/07/12 08:16:27;;;;;;;;;5.00;5.00;;;;;-146.67;30.20;73920.97;5054792;28;62013;-75
2022/07/12 08:18:53;;;;;;;;;8.67;5.67;;;;;-146.67;30.26;73920.97;5034851;28;62055;-75
2022/07/12 08:21:18;;;;;;;;;4.33;4.33;;;;;-146.67;29.68;73915.00;5063360;28;62269;-75
2022/07/12 08:23:44;;;;;;;;;5.00;5.00;;;;;-146.67;30.05;73911.00;5062015;28;61835;-75
2022/07/12 08:26:10;;;;;;;;;5.33;3.00;;;;;-146.67;30.20;73907.00;5045721;28;61825;-75
2022/07/12 08:28:35;;;;;;;;;5.00;5.00;;;;;-146.67;29.93;73907.00;5064029;28;61879;-76
2022/07/12 08:31:00;;;;;;;;;4.33;4.33;;;;;-146.67;30.38;73905.00;5062472;28;62332;-77
2022/07/12 08:33:26;;;;;;;;;4.33;4.33;;;;;-146.67;30.03;73897.03;5045537;28;61839;-75
2022/07/12 08:35:51;;;;;;;;;4.00;4.00;;;;;-146.67;29.95;73891.03;5063450;28;61982;-75
2022/07/12 08:38:17;;;;;;;;;7.67;5.33;;;;;-146.67;30.00;73893.03;5064112;28;61864;-77
2022/07/12 08:40:43;;;;;;;;;5.00;5.00;;;;;-146.67;30.12;73891.03;5045166;28;63873;-77
2022/07/12 08:43:08;;;;;;;;;4.67;4.00;;;;;-146.67;29.96;73891.03;5044302;28;61856;-74
2022/07/12 08:45:34;;;;;;;;;4.00;3.00;;;;;-146.67;29.71;73891.03;5063025;28;61867;-74
2022/07/12 08:48:00;;;;;;;;;3.33;2.00;;;;;-146.67;30.18;73889.03;5063438;28;62018;-74
2022/07/12 08:50:27;;;;;;;;;4.00;3.00;;;;;-146.67;29.44;73891.03;5062221;28;61868;-74
2022/07/12 08:52:55;;;;;;;;;6.00;5.00;;;;;-146.67;29.79;73887.03;5061801;28;61808;-74
2022/07/12 08:55:24;;;;;;;;;6.67;5.00;;;;;-146.67;29.78;73887.03;5045298;28;61895;-74
2022/07/12 08:57:54;;;;;;;;;3.67;3.67;;;;;-146.67;29.90;73883.06;5059604;28;61894;-74
2022/07/12 09:00:20;;;;;;;;;3.00;3.00;;;;;-146.67;29.38;73869.09;5061070;28;61930;-74
2022/07/12 09:02:55;;;;;;;;;2.33;2.00;;;;;-146.67;29.38;73863.09;5042897;28;61993;-74
2022/07/12 09:05:23;;;;;;;;;3.67;2.67;;;;;-146.67;29.30;73855.09;5052182;28;61850;-74
2022/07/12 09:07:49;;;;;;;;;3.00;2.00;;;;;-146.67;29.31;73857.09;5053732;28;61771;-74
2022/07/12 09:10:16;;;;;;;;;2.00;2.00;;;;;-146.67;28.93;73849.13;5043435;28;63563;-75
2022/07/12 09:12:43;;;;;;;;;4.00;3.00;;;;;-146.67;29.20;73851.13;5062754;28;61800;-74
2022/07/12 09:15:23;;;;;;;;;1.67;1.67;;;;;-146.67;28.69;73847.13;5061018;28;62313;-74
2022/07/12 09:18:03;;;;;;;;;2.00;2.00;;;;;-146.67;28.77;73843.13;5060732;28;61808;-73
2022/07/12 09:20:33;;;;;;;;;2.33;2.33;;;;;-146.67;28.75;73839.13;5049299;28;62693;-74
2022/07/12 09:23:04;;;;;;;;;3.33;2.00;;;;;-146.67;28.92;73837.16;5038300;28;62432;-74
2022/07/12 09:25:32;;;;;;;;;5.00;2.00;;;;;-146.67;28.10;73835.16;5032483;28;62059;-73
2022/07/12 09:27:59;;;;;;;;;3.00;1.33;;;;;-146.67;28.44;73825.16;5061306;28;61889;-74
2022/07/12 09:30:27;;;;;;;;;0.67;0.67;;;;;-146.67;28.81;73841.13;5060360;28;63142;-73
2022/07/12 09:36:06;;;;;;;;;4.00;2.67;;;;;-146.67;28.11;73823.16;5061852;28;61925;-74
2022/07/12 09:38:45;;;;;;;;;3.33;3.33;;;;;-146.67;28.33;73819.19;5062742;28;61706;-73
2022/07/12 09:41:16;;;;;;;;;1.67;1.67;;;;;-146.67;28.36;73817.19;5043694;28;63621;-73
2022/07/12 09:43:42;;;;;;;;;3.00;3.00;;;;;-146.67;28.01;73809.19;5061634;28;61756;-73
2022/07/12 09:46:08;;;;;;;;;5.00;3.00;;;;;-146.67;27.93;73807.19;5062225;28;62032;-73
2022/07/12 09:48:34;;;;;;;;;3.00;3.00;;;;;-146.67;27.49;73789.25;5062668;28;62001;-73
2022/07/12 09:51:02;;;;;;;;;4.33;2.67;;;;;-146.67;27.34;73775.25;5061856;28;62287;-73
2022/07/12 09:53:35;;;;;;;;;0.00;0.00;;;;;-146.67;27.78;73767.28;5062389;28;61760;-73
2022/07/12 09:56:05;;;;;;;;;2.00;2.00;;;;;-146.67;27.51;73759.28;5062320;28;61788;-74
2022/07/12 09:58:38;;;;;;;;;3.67;3.67;;;;;-146.67;27.27;73745.31;5058370;28;62079;-74
2022/07/12 10:01:06;;;;;;;;;5.00;4.00;;;;;-146.67;27.19;73739.34;5043342;28;62705;-74
2022/07/12 10:03:34;;;;;;;;;3.00;3.00;;;;;-146.67;27.59;73705.41;5052884;28;61815;-74
2022/07/12 10:06:02;;;;;;;;;5.00;3.00;;;;;-146.67;27.32;73719.38;5049130;28;61949;-74
2022/07/12 10:08:29;;;;;;;;;1.67;1.67;;;;;-146.67;26.55;73697.41;5061755;28;61796;-74
2022/07/12 10:10:54;;;;;;;;;2.67;2.67;;;;;-146.67;26.76;73693.44;5048335;28;62058;-79
2022/07/12 10:13:20;;;;;;;;;2.00;2.00;;;;;-146.67;26.38;73683.44;5056324;28;61838;-73
2022/07/12 10:15:50;;;;;;;;;4.00;3.00;;;;;-146.67;26.62;73667.47;5043161;28;62019;-74
2022/07/12 10:18:20;;;;;;;;;3.00;3.00;;;;;-146.67;25.97;73655.50;5061942;28;61775;-74
2022/07/12 10:20:47;;;;;;;;;3.00;2.00;;;;;-146.67;25.96;73645.53;5060827;28;61971;-74
2022/07/12 10:23:16;;;;;;;;;1.00;1.00;;;;;-146.67;25.53;73637.53;5061380;28;61729;-74
2022/07/12 10:25:42;;;;;;;;;4.00;2.00;;;;;-146.67;25.76;73633.53;5043534;28;61887;-74
2022/07/12 10:28:08;;;;;;;;;4.67;3.00;;;;;-146.67;25.82;73627.56;5043820;28;61816;-73
2022/07/12 10:30:47;;;;;;;;;2.67;0.33;;;;;-146.67;25.52;73591.63;5061125;28;61767;-74
2022/07/12 10:33:20;;;;;;;;;3.00;3.00;;;;;-146.67;25.14;73615.59;5059967;28;61974;-74
2022/07/12 10:35:57;;;;;;;;;3.33;2.67;;;;;-146.67;25.18;73621.56;5060864;28;62222;-74
2022/07/12 10:38:23;;;;;;;;;2.00;2.00;;;;;-146.67;24.76;73613.59;5059878;28;62041;-74
2022/07/12 10:40:50;;;;;;;;;2.00;2.00;;;;;-146.67;24.73;73603.59;5060685;28;62133;-73
2022/07/12 10:43:21;;;;;;;;;2.67;2.67;;;;;-146.67;24.22;73589.63;5060127;28;61903;-74
2022/07/12 10:45:48;;;;;;;;;2.00;2.00;;;;;-146.67;24.55;73585.63;5061600;28;61813;-73
2022/07/12 10:48:13;;;;;;;;;3.33;1.33;;;;;-146.67;24.48;73571.66;5061857;28;62110;-73
2022/07/12 10:50:42;;;;;;;;;2.67;2.67;;;;;-146.67;24.44;73555.69;5061058;28;61990;-73
2022/07/12 10:53:22;;;;;;;;;4.00;2.33;;;;;-146.67;24.48;73519.78;5055684;28;61774;-74
2022/07/12 10:56:18;;;;;;;;;2.00;2.00;;;;;-146.67;24.60;73501.81;5063754;28;61935;-73
2022/07/12 10:58:53;;;;;;;;;1.67;1.67;;;;;-146.67;24.51;73495.81;5064958;28;61765;-74
2022/07/12 11:01:23;;;;;;;;;4.33;2.67;;;;;-146.67;24.37;73479.84;5063998;28;61878;-73
2022/07/12 11:03:52;;;;;;;;;1.67;1.67;;;;;-146.67;24.12;73467.88;5065097;28;61931;-73
2022/07/12 11:06:22;;;;;;;;;3.67;2.00;;;;;-146.67;24.09;73451.91;5064966;28;61933;-73
2022/07/12 11:08:47;;;;;;;;;2.67;1.67;;;;;-146.67;23.68;73433.94;5065418;28;61872;-73
2022/07/12 11:11:13;;;;;;;;;2.33;2.33;;;;;-146.67;23.65;73417.97;5044560;28;63597;-73
2022/07/12 11:13:38;;;;;;;;;1.33;1.33;;;;;-146.67;23.51;73398.03;5063194;28;61860;-74
2022/07/12 11:16:04;;;;;;;;;1.67;1.33;;;;;-146.67;23.30;73380.06;5048464;28;62028;-74
2022/07/12 11:18:34;;;;;;;;;2.33;2.33;;;;;-146.67;23.62;73366.09;5062275;28;61819;-74
2022/07/12 11:21:01;;;;;;;;;2.33;2.33;;;;;-146.67;23.32;73360.09;5062696;28;61896;-74
2022/07/12 11:23:28;;;;;;;;;2.00;2.00;;;;;-146.67;23.05;73344.13;5060957;28;61968;-75